createdAt,value
2018-10-18T00:00:43.524Z,12.90
2018-10-18T00:03:11.701Z,12.20
2018-10-18T00:05:39.894Z,12.23
2018-10-18T00:08:08.101Z,12.50
2018-10-18T00:10:36.223Z,12.00
2018-10-18T00:13:04.433Z,12.27
2018-10-18T00:15:32.587Z,12.10
2018-10-18T00:18:00.764Z,11.80
2018-10-18T00:20:28.891Z,12.33
2018-10-18T00:22:57.095Z,12.97
2018-10-18T00:25:25.240Z,12.87
2018-10-18T00:27:53.455Z,13.17
2018-10-18T00:30:21.817Z,11.60
2018-10-18T00:32:49.923Z,11.80
2018-10-18T00:35:18.019Z,11.93
2018-10-18T00:37:46.187Z,11.37
2018-10-18T00:40:14.322Z,10.37
2018-10-18T00:42:42.562Z,11.53
2018-10-18T00:45:10.773Z,11.17
2018-10-18T00:47:38.917Z,11.80
2018-10-18T00:50:09.901Z,12.00
2018-10-18T00:52:38.018Z,11.63
2018-10-18T00:55:08.873Z,12.23
2018-10-18T00:57:37.047Z,14.23
2018-10-18T01:00:06.585Z,14.30
2018-10-18T01:02:34.726Z,17.63
2018-10-18T01:05:03.077Z,16.13
2018-10-18T01:07:31.375Z,25.20
2018-10-18T01:09:59.651Z,21.43
2018-10-18T01:12:27.895Z,18.37
2018-10-18T01:14:55.997Z,16.93
2018-10-18T01:17:24.171Z,17.97
2018-10-18T01:19:52.408Z,17.27
2018-10-18T01:22:20.509Z,15.30
2018-10-18T01:24:48.692Z,14.03
2018-10-18T01:27:16.932Z,13.07
2018-10-18T01:29:45.080Z,12.33
2018-10-18T01:32:13.266Z,12.03
2018-10-18T01:34:41.432Z,12.00
2018-10-18T01:37:09.679Z,12.70
2018-10-18T01:39:38.025Z,12.77
2018-10-18T01:42:06.658Z,12.60
2018-10-18T01:44:34.867Z,13.17
2018-10-18T01:47:03.045Z,12.80
2018-10-18T01:49:31.047Z,11.73
2018-10-18T01:51:59.189Z,12.23
2018-10-18T01:54:27.369Z,13.10
2018-10-18T01:56:55.491Z,13.07
2018-10-18T01:59:23.757Z,14.17
2018-10-18T02:01:51.900Z,14.40
2018-10-18T02:04:20.021Z,14.87
2018-10-18T02:06:48.168Z,14.57
2018-10-18T02:09:16.378Z,15.27
2018-10-18T02:11:44.597Z,15.83
2018-10-18T02:14:12.738Z,15.30
2018-10-18T02:16:40.877Z,14.83
2018-10-18T02:19:09.051Z,14.50
2018-10-18T02:21:37.127Z,15.10
2018-10-18T02:24:05.621Z,15.63
2018-10-18T02:26:33.723Z,17.17
2018-10-18T02:29:01.986Z,17.83
2018-10-18T02:31:30.176Z,17.97
2018-10-18T02:33:58.379Z,19.07
2018-10-18T02:36:26.579Z,18.10
2018-10-18T02:38:54.756Z,20.23
2018-10-18T02:41:22.964Z,17.07
2018-10-18T02:43:51.085Z,17.63
2018-10-18T02:46:19.226Z,18.10
2018-10-18T02:48:47.455Z,16.53
2018-10-18T02:51:15.762Z,16.60
2018-10-18T02:53:43.938Z,16.07
2018-10-18T02:56:12.080Z,15.97
2018-10-18T02:58:40.327Z,16.27
2018-10-18T03:01:08.538Z,17.13
2018-10-18T03:03:36.711Z,17.00
2018-10-18T03:06:04.963Z,18.73
2018-10-18T03:08:33.093Z,16.73
2018-10-18T03:11:01.216Z,16.03
2018-10-18T03:13:29.289Z,15.03
2018-10-18T03:15:57.516Z,20.83
2018-10-18T03:18:25.674Z,16.97
2018-10-18T03:20:53.855Z,23.00
2018-10-18T03:23:22.090Z,17.67
2018-10-18T03:25:50.315Z,24.17
2018-10-18T03:28:18.533Z,30.93
2018-10-18T03:30:46.710Z,24.97
2018-10-18T03:33:14.866Z,26.97
2018-10-18T03:35:43.004Z,27.90
2018-10-18T03:38:11.419Z,23.43
2018-10-18T03:40:40.645Z,51.50
2018-10-18T03:43:08.801Z,28.63
2018-10-18T03:45:37.031Z,25.73
2018-10-18T03:48:05.254Z,23.20
2018-10-18T03:50:33.498Z,23.43
2018-10-18T03:53:01.768Z,22.23
2018-10-18T03:55:29.940Z,20.70
2018-10-18T03:57:58.169Z,26.07
2018-10-18T04:00:26.454Z,32.80
2018-10-18T04:02:54.623Z,32.90
2018-10-18T04:05:22.786Z,21.97
2018-10-18T04:07:50.942Z,20.70
2018-10-18T04:10:19.131Z,18.13
2018-10-18T04:12:47.379Z,21.40
2018-10-18T04:15:15.513Z,17.80
2018-10-18T04:17:44.030Z,20.23
2018-10-18T04:20:12.174Z,20.83
2018-10-18T04:22:40.375Z,21.20
2018-10-18T04:25:08.588Z,22.23
2018-10-18T04:27:36.768Z,18.73
2018-10-18T04:30:05.868Z,19.70
2018-10-18T04:32:35.443Z,18.23
2018-10-18T04:35:04.293Z,17.53
2018-10-18T04:37:34.189Z,21.17
2018-10-18T04:40:05.874Z,23.53
2018-10-18T04:42:34.101Z,19.63
2018-10-18T04:45:03.115Z,20.20
2018-10-18T04:47:33.580Z,16.27
2018-10-18T04:50:05.096Z,18.30
2018-10-18T04:52:34.933Z,18.43
2018-10-18T04:55:03.173Z,21.53
2018-10-18T04:57:35.864Z,21.40
2018-10-18T05:00:04.670Z,20.20
2018-10-18T05:02:32.880Z,19.20
2018-10-18T05:06:09.100Z,26.23
2018-10-18T05:08:37.961Z,22.37
2018-10-18T05:11:06.585Z,20.20
2018-10-18T05:13:34.748Z,18.93
2018-10-18T05:16:08.012Z,19.33
2018-10-18T05:18:39.404Z,20.03
2018-10-18T05:21:11.049Z,18.53
2018-10-18T05:23:40.272Z,18.03
2018-10-18T05:26:09.323Z,22.07
2018-10-18T05:28:41.350Z,18.17
2018-10-18T05:31:13.854Z,21.00
2018-10-18T05:33:41.958Z,16.93
2018-10-18T05:36:10.839Z,19.93
2018-10-18T05:38:39.048Z,87.27
2018-10-18T05:41:08.144Z,38.10
2018-10-18T05:43:36.260Z,26.47
2018-10-18T05:46:04.523Z,24.87
2018-10-18T05:48:32.801Z,21.47
2018-10-18T05:51:00.915Z,20.60
2018-10-18T05:53:30.404Z,18.60
2018-10-18T05:55:58.655Z,19.07
2018-10-18T05:58:26.807Z,19.80
2018-10-18T06:00:55.046Z,16.20
2018-10-18T06:03:23.235Z,15.40
2018-10-18T06:05:51.488Z,19.37
2018-10-18T06:08:19.682Z,15.40
2018-10-18T06:11:04.919Z,15.37
2018-10-18T06:13:33.164Z,15.43
2018-10-18T06:16:01.430Z,17.97
2018-10-18T06:18:29.725Z,18.70
2018-10-18T06:20:57.909Z,16.77
2018-10-18T06:23:26.256Z,19.33
2018-10-18T06:25:54.362Z,18.07
2018-10-18T06:28:22.614Z,19.07
2018-10-18T06:30:50.785Z,17.67
2018-10-18T06:33:19.003Z,15.37
2018-10-18T06:35:47.274Z,17.13
2018-10-18T06:38:15.475Z,16.43
2018-10-18T06:40:43.796Z,20.33
2018-10-18T06:43:12.116Z,17.77
2018-10-18T06:45:40.316Z,17.57
2018-10-18T06:48:08.611Z,17.33
2018-10-18T06:50:36.753Z,19.00
2018-10-18T06:53:05.187Z,15.73
2018-10-18T06:55:34.027Z,17.13
2018-10-18T06:58:02.494Z,15.57
2018-10-18T07:00:30.873Z,13.87
2018-10-18T07:02:59.014Z,16.50
2018-10-18T07:05:27.295Z,16.17
2018-10-18T07:07:55.501Z,18.30
2018-10-18T07:10:23.711Z,14.63
2018-10-18T07:12:51.879Z,16.10
2018-10-18T07:15:20.148Z,15.10
2018-10-18T07:17:48.464Z,14.37
2018-10-18T07:20:16.649Z,16.93
2018-10-18T07:22:44.866Z,16.17
2018-10-18T07:25:14.319Z,14.70
2018-10-18T07:27:42.967Z,14.67
2018-10-18T07:30:13.800Z,15.90
2018-10-18T07:32:42.080Z,14.97
2018-10-18T07:35:11.986Z,15.77
2018-10-18T07:37:40.145Z,16.10
2018-10-18T07:40:12.565Z,16.17
2018-10-18T07:42:40.829Z,15.97
2018-10-18T07:45:10.079Z,13.03
2018-10-18T07:47:38.401Z,14.07
2018-10-18T07:50:07.965Z,15.00
2018-10-18T07:52:36.510Z,13.90
2018-10-18T07:55:06.266Z,16.10
2018-10-18T07:57:34.582Z,15.90
2018-10-18T08:00:03.066Z,17.97
2018-10-18T08:02:31.166Z,16.27
2018-10-18T08:04:59.420Z,15.87
2018-10-18T08:07:27.653Z,14.17
2018-10-18T08:09:55.841Z,13.67
2018-10-18T08:12:24.013Z,13.43
2018-10-18T08:14:53.023Z,13.43
2018-10-18T08:17:21.295Z,13.17
2018-10-18T08:19:49.438Z,13.67
2018-10-18T08:22:17.694Z,13.77
2018-10-18T08:24:45.875Z,13.40
2018-10-18T08:27:14.068Z,13.00
2018-10-18T08:29:42.897Z,12.90
2018-10-18T08:32:11.100Z,12.27
2018-10-18T08:34:39.265Z,11.27
2018-10-18T08:37:07.568Z,11.50
2018-10-18T08:39:35.824Z,10.90
2018-10-18T08:42:04.248Z,10.97
2018-10-18T08:44:32.628Z,10.80
2018-10-18T08:47:00.726Z,11.13
2018-10-18T08:49:28.890Z,10.67
2018-10-18T08:51:57.171Z,11.23
2018-10-18T08:54:25.460Z,9.73
2018-10-18T08:56:53.635Z,10.50
2018-10-18T08:59:21.867Z,10.20
2018-10-18T09:01:50.037Z,9.83
2018-10-18T09:04:18.188Z,9.27
2018-10-18T09:06:46.449Z,9.47
2018-10-18T09:09:14.744Z,9.77
2018-10-18T09:11:42.875Z,9.70
2018-10-18T09:14:11.117Z,12.47
2018-10-18T09:16:39.309Z,9.63
2018-10-18T09:19:07.541Z,42.27
2018-10-18T09:21:35.758Z,13.87
2018-10-18T09:24:04.550Z,11.40
2018-10-18T09:26:32.854Z,10.23
2018-10-18T09:29:01.142Z,9.43
2018-10-18T09:31:29.344Z,16.13
2018-10-18T09:33:57.534Z,12.77
2018-10-18T09:36:25.808Z,10.00
2018-10-18T09:38:53.978Z,9.60
2018-10-18T09:41:22.327Z,9.77
2018-10-18T09:43:55.082Z,10.00
2018-10-18T09:46:23.207Z,10.13
2018-10-18T09:48:51.292Z,11.47
2018-10-18T09:51:19.529Z,10.73
2018-10-18T09:53:47.701Z,11.97
2018-10-18T09:56:16.035Z,11.00
2018-10-18T09:58:45.263Z,11.00
2018-10-18T10:01:19.052Z,10.23
2018-10-18T10:03:47.216Z,10.70
2018-10-18T10:06:15.494Z,20.77
2018-10-18T10:08:43.670Z,11.37
2018-10-18T10:11:11.919Z,11.40
2018-10-18T10:13:40.076Z,10.73
2018-10-18T10:16:08.222Z,11.83
2018-10-18T10:18:37.716Z,11.70
2018-10-18T10:21:06.050Z,11.43
2018-10-18T10:23:34.231Z,12.10
2018-10-18T10:26:02.727Z,12.73
2018-10-18T10:28:31.457Z,12.43
2018-10-18T10:30:59.758Z,12.53
2018-10-18T10:33:28.022Z,13.37
2018-10-18T10:35:56.267Z,13.70
2018-10-18T10:38:24.457Z,12.93
2018-10-18T10:40:52.608Z,13.13
2018-10-18T10:43:20.865Z,14.13
2018-10-18T10:45:49.210Z,13.40
2018-10-18T10:48:17.476Z,13.73
2018-10-18T10:50:45.665Z,14.43
2018-10-18T10:53:13.866Z,14.00
2018-10-18T10:55:42.103Z,13.03
2018-10-18T10:58:10.361Z,14.13
2018-10-18T11:01:19.174Z,15.70
2018-10-18T11:03:48.023Z,14.50
2018-10-18T11:06:16.307Z,14.58
2018-10-18T11:08:44.545Z,16.90
2018-10-18T11:11:13.780Z,17.70
2018-10-18T11:13:42.058Z,15.93
2018-10-18T11:16:10.218Z,15.75
2018-10-18T11:18:38.952Z,14.80
2018-10-18T11:21:08.423Z,16.00
2018-10-18T11:23:37.335Z,14.58
2018-10-18T11:26:05.834Z,14.80
2018-10-18T11:28:34.124Z,13.72
2018-10-18T11:31:02.341Z,12.80
2018-10-18T11:33:30.639Z,14.35
2018-10-18T11:35:58.896Z,13.30
2018-10-18T11:38:27.123Z,13.08
2018-10-18T11:40:55.352Z,13.72
2018-10-18T11:43:23.623Z,13.30
2018-10-18T11:45:51.758Z,12.78
2018-10-18T11:48:20.044Z,14.20
2018-10-18T11:50:48.314Z,13.95
2018-10-18T11:53:16.482Z,12.55
2018-10-18T11:55:44.690Z,12.00
2018-10-18T11:58:14.016Z,12.60
2018-10-18T12:00:42.300Z,11.15
2018-10-18T12:03:10.512Z,11.65
2018-10-18T12:05:38.698Z,11.05
2018-10-18T12:08:07.011Z,12.05
2018-10-18T12:10:35.130Z,12.63
2018-10-18T12:13:03.343Z,12.30
2018-10-18T12:15:31.571Z,11.03
2018-10-18T12:17:59.706Z,12.73
2018-10-18T12:20:27.926Z,11.35
2018-10-18T12:22:56.211Z,10.03
2018-10-18T12:25:24.362Z,9.55
2018-10-18T12:27:52.909Z,8.73
2018-10-18T12:30:21.201Z,8.48
2018-10-18T12:32:49.422Z,8.50
2018-10-18T12:35:17.731Z,8.80
2018-10-18T12:37:45.859Z,8.65
2018-10-18T12:40:14.157Z,8.90
2018-10-18T12:42:43.667Z,9.00
2018-10-18T12:45:12.448Z,8.35
2018-10-18T12:47:40.669Z,8.38
2018-10-18T12:50:09.016Z,8.90
2018-10-18T12:52:37.208Z,8.48
2018-10-18T12:55:05.681Z,9.00
2018-10-18T12:57:33.963Z,8.70
2018-10-18T13:00:02.209Z,9.18
2018-10-18T13:02:30.445Z,9.18
2018-10-18T13:04:58.557Z,9.18
2018-10-18T13:07:26.792Z,8.90
2018-10-18T13:09:54.943Z,8.83
2018-10-18T13:12:23.221Z,8.88
2018-10-18T13:14:51.273Z,9.23
2018-10-18T13:17:19.457Z,8.80
2018-10-18T13:19:47.659Z,9.35
2018-10-18T13:22:15.821Z,11.00
2018-10-18T13:24:44.041Z,14.90
2018-10-18T13:27:12.215Z,14.33
2018-10-18T13:29:40.377Z,15.00
2018-10-18T13:32:08.643Z,15.90
2018-10-18T13:34:36.788Z,15.90
2018-10-18T13:37:05.291Z,16.10
2018-10-18T13:39:33.455Z,16.67
2018-10-18T13:42:01.796Z,15.50
2018-10-18T13:44:29.881Z,15.77
2018-10-18T13:46:58.146Z,16.17
2018-10-18T13:49:26.473Z,16.17
2018-10-18T13:51:54.666Z,15.77
2018-10-18T13:54:22.924Z,15.93
2018-10-18T13:56:51.031Z,16.90
2018-10-18T13:59:36.353Z,17.97
2018-10-18T14:02:04.982Z,17.37
2018-10-18T14:04:33.128Z,17.20
2018-10-18T14:07:01.292Z,16.27
2018-10-18T14:09:29.462Z,14.03
2018-10-18T14:11:57.637Z,13.47
2018-10-18T14:14:25.843Z,12.43
2018-10-18T14:16:54.069Z,10.93
2018-10-18T14:19:22.371Z,11.60
2018-10-18T14:21:50.692Z,12.13
2018-10-18T14:24:19.039Z,11.23
2018-10-18T14:26:47.283Z,12.80
2018-10-18T14:29:15.571Z,11.53
2018-10-18T14:31:43.755Z,12.60
2018-10-18T14:34:12.009Z,13.20
2018-10-18T14:36:43.684Z,13.33
2018-10-18T14:39:11.892Z,13.80
2018-10-18T14:41:40.055Z,13.20
2018-10-18T14:44:08.221Z,13.27
2018-10-18T14:46:36.447Z,13.47
2018-10-18T14:49:04.782Z,12.97
2018-10-18T14:51:32.999Z,14.00
2018-10-18T14:54:01.234Z,13.23
2018-10-18T14:56:29.463Z,13.63
2018-10-18T14:58:57.827Z,15.37
2018-10-18T15:01:26.089Z,14.77
2018-10-18T15:03:54.279Z,14.17
2018-10-18T15:06:22.485Z,17.03
2018-10-18T15:08:50.726Z,15.13
2018-10-18T15:11:18.876Z,15.47
2018-10-18T15:13:47.093Z,15.07
2018-10-18T15:16:15.312Z,16.03
2018-10-18T15:18:43.542Z,14.13
2018-10-18T15:21:12.621Z,13.40
2018-10-18T15:23:40.843Z,14.63
2018-10-18T15:26:09.115Z,14.33
2018-10-18T15:28:37.244Z,14.80
2018-10-18T15:31:05.714Z,14.10
2018-10-18T15:33:33.958Z,14.20
2018-10-18T15:36:02.137Z,14.70
2018-10-18T15:38:30.479Z,14.87
2018-10-18T15:40:58.613Z,14.67
2018-10-18T15:43:26.765Z,14.63
2018-10-18T15:45:55.626Z,16.00
2018-10-18T15:48:23.885Z,14.50
2018-10-18T15:50:52.042Z,14.47
2018-10-18T15:53:20.348Z,15.87
2018-10-18T15:55:48.434Z,15.67
2018-10-18T15:58:16.747Z,15.13
2018-10-18T16:00:45.850Z,15.63
2018-10-18T16:03:14.056Z,14.83
2018-10-18T16:05:42.226Z,15.83
2018-10-18T16:08:10.457Z,16.33
2018-10-18T16:10:38.682Z,15.43
2018-10-18T16:13:06.926Z,15.67
2018-10-18T16:15:35.134Z,15.70
2018-10-18T16:18:03.315Z,16.63
2018-10-18T16:20:31.512Z,19.70
2018-10-18T16:22:59.798Z,30.23
2018-10-18T16:25:28.003Z,24.83
2018-10-18T16:27:56.260Z,27.30
2018-10-18T16:30:24.565Z,20.07
2018-10-18T16:32:52.721Z,22.57
2018-10-18T16:35:20.997Z,18.80
2018-10-18T16:37:49.225Z,17.63
2018-10-18T16:40:17.435Z,16.57
2018-10-18T16:42:45.661Z,16.60
2018-10-18T16:45:13.971Z,17.43
2018-10-18T16:47:42.359Z,17.43
2018-10-18T16:50:11.167Z,17.33
2018-10-18T16:52:39.400Z,17.10
2018-10-18T16:55:07.661Z,18.23
2018-10-18T16:57:35.891Z,18.90
2018-10-18T17:00:05.441Z,17.80
2018-10-18T17:02:33.692Z,18.40
2018-10-18T17:05:01.858Z,21.53
2018-10-18T17:07:30.087Z,18.60
2018-10-18T17:09:58.377Z,17.67
2018-10-18T17:12:26.619Z,17.93
2018-10-18T17:14:54.824Z,17.50
2018-10-18T17:17:22.973Z,17.00
2018-10-18T17:19:51.175Z,15.70
2018-10-18T17:22:19.431Z,15.33
2018-10-18T17:24:47.704Z,15.90
2018-10-18T17:27:16.100Z,17.60
2018-10-18T17:29:44.272Z,16.67
2018-10-18T17:32:12.655Z,17.30
2018-10-18T17:34:40.667Z,17.73
2018-10-18T17:37:08.940Z,18.00
2018-10-18T17:39:37.983Z,18.50
2018-10-18T17:42:08.389Z,18.37
2018-10-18T17:44:41.193Z,18.60
2018-10-18T17:47:09.483Z,19.10
2018-10-18T17:49:37.730Z,18.23
2018-10-18T17:52:06.228Z,18.17
2018-10-18T17:54:34.389Z,17.53
2018-10-18T17:57:02.599Z,18.90
2018-10-18T17:59:30.853Z,17.30
2018-10-18T18:01:59.058Z,18.50
2018-10-18T18:04:27.308Z,19.90
2018-10-18T18:06:55.633Z,17.60
2018-10-18T18:09:23.797Z,19.60
2018-10-18T18:11:51.951Z,19.67
2018-10-18T18:14:20.186Z,17.77
2018-10-18T18:16:48.412Z,18.97
2018-10-18T18:19:16.653Z,19.23
2018-10-18T18:21:44.893Z,17.80
2018-10-18T18:24:13.080Z,18.17
2018-10-18T18:26:45.347Z,17.20
2018-10-18T18:29:09.690Z,17.03
2018-10-18T18:31:37.829Z,17.40
2018-10-18T18:34:06.684Z,17.60
2018-10-18T18:36:34.876Z,19.33
2018-10-18T18:39:04.257Z,18.80
2018-10-18T18:41:32.488Z,19.93
2018-10-18T18:44:00.784Z,18.93
2018-10-18T18:46:31.533Z,19.90
2018-10-18T18:48:59.721Z,19.47
2018-10-18T18:51:27.883Z,18.83
2018-10-18T18:53:56.072Z,19.90
2018-10-18T18:56:24.234Z,19.73
2018-10-18T18:58:52.462Z,19.27
2018-10-18T19:01:20.718Z,19.63
2018-10-18T19:03:48.909Z,19.53
2018-10-18T19:06:17.148Z,19.27
2018-10-18T19:08:45.379Z,20.37
2018-10-18T19:11:13.611Z,21.70
2018-10-18T19:13:41.804Z,20.40
2018-10-18T19:16:10.045Z,21.43
2018-10-18T19:18:38.397Z,18.77
2018-10-18T19:21:06.697Z,19.20
2018-10-18T19:23:34.826Z,18.63
2018-10-18T19:26:03.055Z,19.37
2018-10-18T19:28:31.691Z,19.27
2018-10-18T19:30:59.900Z,18.53
2018-10-18T19:33:28.175Z,17.70
2018-10-18T19:35:56.356Z,19.17
2018-10-18T19:38:24.577Z,20.17
2018-10-18T19:40:53.391Z,21.27
2018-10-18T19:43:21.583Z,19.90
2018-10-18T19:45:49.862Z,20.03
2018-10-18T19:48:17.939Z,18.90
2018-10-18T19:50:46.125Z,18.93
2018-10-18T19:53:14.310Z,18.20
2018-10-18T19:55:42.430Z,18.77
2018-10-18T19:58:10.663Z,18.30
2018-10-18T20:00:38.848Z,18.47
2018-10-18T20:03:06.951Z,18.30
2018-10-18T20:05:35.103Z,18.73
2018-10-18T20:08:03.610Z,18.50
2018-10-18T20:10:31.792Z,18.83
2018-10-18T20:13:00.078Z,18.17
2018-10-18T20:15:28.200Z,19.47
2018-10-18T20:17:57.430Z,18.40
2018-10-18T20:20:25.490Z,19.10
2018-10-18T20:22:53.618Z,18.97
2018-10-18T20:25:21.944Z,18.83
2018-10-18T20:27:49.956Z,18.70
2018-10-18T20:30:18.731Z,19.17
2018-10-18T20:32:46.900Z,18.80
2018-10-18T20:35:15.075Z,18.67
2018-10-18T20:37:43.261Z,20.10
2018-10-18T20:40:13.261Z,20.00
2018-10-18T20:42:41.606Z,21.07
2018-10-18T20:45:14.290Z,19.33
2018-10-18T20:47:43.537Z,19.60
2018-10-18T20:50:12.436Z,18.63
2018-10-18T20:52:40.611Z,19.60
2018-10-18T20:55:09.170Z,19.53
2018-10-18T20:57:38.063Z,20.10
2018-10-18T21:00:08.277Z,21.03
2018-10-18T21:02:36.457Z,22.13
2018-10-18T21:05:05.302Z,19.83
2018-10-18T21:07:33.444Z,19.97
2018-10-18T21:10:01.584Z,21.17
2018-10-18T21:12:29.832Z,20.40
2018-10-18T21:14:57.942Z,19.27
2018-10-18T21:17:26.033Z,20.50
2018-10-18T21:19:54.181Z,18.20
2018-10-18T21:22:22.385Z,19.23
2018-10-18T21:24:50.485Z,18.27
2018-10-18T21:27:18.636Z,19.37
2018-10-18T21:29:46.819Z,18.03
2018-10-18T21:32:15.564Z,16.53
2018-10-18T21:34:45.418Z,18.40
2018-10-18T21:37:13.596Z,17.83
2018-10-18T21:39:42.368Z,17.47
2018-10-18T21:42:10.577Z,19.33
2018-10-18T21:44:39.005Z,16.93
2018-10-18T21:47:07.230Z,17.37
2018-10-18T21:49:35.409Z,17.47
2018-10-18T21:52:03.610Z,17.07
2018-10-18T21:54:31.761Z,17.43
2018-10-18T21:56:59.961Z,18.10
2018-10-18T21:59:28.240Z,17.43
2018-10-18T22:01:56.486Z,19.07
2018-10-18T22:04:24.615Z,18.47
2018-10-18T22:06:52.773Z,19.70
2018-10-18T22:09:22.075Z,18.43
2018-10-18T22:11:50.232Z,19.33
2018-10-18T22:14:19.476Z,18.87
2018-10-18T22:16:47.608Z,18.77
2018-10-18T22:19:15.751Z,18.27
2018-10-18T22:21:43.903Z,18.63
2018-10-18T22:24:12.109Z,18.97
2018-10-18T22:26:40.284Z,18.13
2018-10-18T22:29:08.472Z,18.27
2018-10-18T22:31:36.859Z,18.80
2018-10-18T22:34:05.394Z,17.73
2018-10-18T22:36:33.612Z,19.07
2018-10-18T22:39:01.810Z,18.03
2018-10-18T22:41:29.919Z,18.20
2018-10-18T22:43:58.088Z,18.97
2018-10-18T22:46:26.240Z,18.40
2018-10-18T22:48:54.440Z,17.73
2018-10-18T22:51:22.640Z,18.67
2018-10-18T22:53:50.739Z,18.07
2018-10-18T22:56:18.940Z,18.77
2018-10-18T22:58:47.086Z,18.20
2018-10-18T23:01:15.235Z,19.10
2018-10-18T23:03:43.338Z,18.77
2018-10-18T23:06:11.574Z,18.37
2018-10-18T23:08:39.748Z,17.43
2018-10-18T23:11:08.103Z,18.73
2018-10-18T23:13:36.213Z,18.33
2018-10-18T23:16:04.479Z,16.70
2018-10-18T23:18:32.634Z,16.60
2018-10-18T23:21:00.851Z,16.80
2018-10-18T23:23:28.979Z,15.97
2018-10-18T23:25:57.075Z,17.50
2018-10-18T23:28:25.180Z,16.43
2018-10-18T23:30:58.455Z,17.47
2018-10-18T23:33:26.719Z,16.90
2018-10-18T23:35:54.906Z,17.70
2018-10-18T23:38:23.063Z,19.00
2018-10-18T23:40:51.193Z,18.33
2018-10-18T23:43:19.340Z,17.57
2018-10-18T23:45:47.548Z,17.00
2018-10-18T23:48:16.008Z,17.73
2018-10-18T23:50:44.238Z,16.77
2018-10-18T23:53:12.399Z,17.03
2018-10-18T23:55:40.545Z,16.10
2018-10-18T23:58:08.765Z,16.23
